createdAt,value
2022-12-08T00:01:07.234Z,52.92
2022-12-08T00:02:44.497Z,38.67
2022-12-08T00:04:18.079Z,41.55
2022-12-08T00:06:08.780Z,45.00
2022-12-08T00:07:59.299Z,42.05
2022-12-08T00:09:39.062Z,40.97
2022-12-08T00:11:13.982Z,43.25
2022-12-08T00:12:48.755Z,51.15
2022-12-08T00:14:24.729Z,42.35
2022-12-08T00:16:01.831Z,43.13
2022-12-08T00:17:35.340Z,43.58
2022-12-08T00:19:08.619Z,49.75
2022-12-08T00:20:42.039Z,54.85
2022-12-08T00:22:15.871Z,45.22
2022-12-08T00:23:49.047Z,50.58
2022-12-08T00:25:22.514Z,53.22
2022-12-08T00:26:56.071Z,53.92
2022-12-08T00:28:31.099Z,51.20
2022-12-08T00:30:05.563Z,61.67
2022-12-08T00:31:39.048Z,57.55
2022-12-08T00:33:12.602Z,66.80
2022-12-08T00:34:46.524Z,64.47
2022-12-08T00:36:19.948Z,57.88
2022-12-08T00:37:57.527Z,65.85
2022-12-08T00:39:34.298Z,61.28
2022-12-08T00:41:13.375Z,65.97
2022-12-08T00:42:45.913Z,59.33
2022-12-08T00:44:20.877Z,55.10
2022-12-08T00:45:54.328Z,65.03
2022-12-08T00:47:27.732Z,58.83
2022-12-08T00:49:00.900Z,51.40
2022-12-08T00:50:34.667Z,58.55
2022-12-08T00:52:08.403Z,49.00
2022-12-08T00:53:41.909Z,54.95
2022-12-08T00:55:15.116Z,55.88
2022-12-08T00:56:48.409Z,62.40
2022-12-08T00:58:21.974Z,56.70
2022-12-08T00:59:57.288Z,46.17
2022-12-08T01:01:30.581Z,51.95
2022-12-08T01:03:03.904Z,63.08
2022-12-08T01:04:37.475Z,46.22
2022-12-08T01:06:11.160Z,52.72
2022-12-08T01:07:44.538Z,59.22
2022-12-08T01:09:18.972Z,48.08
2022-12-08T01:10:52.893Z,51.97
2022-12-08T01:12:26.647Z,61.25
2022-12-08T01:13:59.871Z,59.17
2022-12-08T01:15:34.447Z,50.17
2022-12-08T01:17:08.208Z,56.08
2022-12-08T01:18:40.518Z,55.08
2022-12-08T01:20:13.794Z,57.92
2022-12-08T01:21:48.328Z,61.67
2022-12-08T01:23:23.136Z,49.00
2022-12-08T01:24:56.463Z,49.35
2022-12-08T01:26:29.788Z,49.20
2022-12-08T01:28:03.150Z,54.85
2022-12-08T01:29:37.063Z,52.45
2022-12-08T01:31:15.012Z,49.42
2022-12-08T01:32:48.634Z,58.53
2022-12-08T01:34:22.402Z,53.08
2022-12-08T01:35:55.582Z,57.47
2022-12-08T01:37:29.036Z,48.13
2022-12-08T01:39:03.127Z,55.03
2022-12-08T01:40:36.302Z,45.88
2022-12-08T01:42:21.266Z,56.50
2022-12-08T01:44:00.804Z,52.05
2022-12-08T01:45:34.290Z,53.67
2022-12-08T01:47:09.058Z,53.67
2022-12-08T01:48:42.227Z,47.45
2022-12-08T01:50:18.420Z,45.92
2022-12-08T01:51:57.758Z,41.42
2022-12-08T01:53:33.839Z,50.35
2022-12-08T01:55:12.977Z,52.70
2022-12-08T01:56:54.076Z,51.35
2022-12-08T01:58:30.153Z,50.20
2022-12-08T02:00:08.589Z,50.35
2022-12-08T02:01:42.390Z,50.03
2022-12-08T02:03:22.791Z,45.95
2022-12-08T02:04:54.967Z,47.13
2022-12-08T02:06:29.979Z,42.70
2022-12-08T02:08:06.878Z,39.60
2022-12-08T02:09:42.769Z,35.30
2022-12-08T02:11:16.005Z,42.90
2022-12-08T02:12:52.212Z,40.75
2022-12-08T02:14:26.712Z,40.53
2022-12-08T02:16:07.402Z,40.70
2022-12-08T02:17:57.560Z,46.17
2022-12-08T02:19:54.854Z,37.15
2022-12-08T02:21:35.571Z,50.47
2022-12-08T02:23:17.906Z,47.25
2022-12-08T02:24:59.265Z,47.78
2022-12-08T02:27:11.559Z,48.47
2022-12-08T02:29:06.655Z,53.78
2022-12-08T02:30:51.683Z,48.00
2022-12-08T02:32:50.306Z,47.13
2022-12-08T02:34:33.113Z,47.97
2022-12-08T02:36:16.073Z,33.20
2022-12-08T02:37:58.999Z,42.80
2022-12-08T02:39:50.806Z,37.97
2022-12-08T02:41:33.496Z,41.45
2022-12-08T02:43:14.219Z,46.10
2022-12-08T02:44:54.715Z,41.03
2022-12-08T02:46:32.560Z,35.58
2022-12-08T02:48:07.231Z,35.75
2022-12-08T02:49:42.496Z,33.60
2022-12-08T02:51:15.756Z,36.75
2022-12-08T02:52:49.681Z,31.02
2022-12-08T02:54:23.261Z,34.30
2022-12-08T02:56:05.075Z,37.78
2022-12-08T02:57:51.755Z,38.92
2022-12-08T02:59:37.918Z,39.05
2022-12-08T03:01:30.590Z,41.33
2022-12-08T03:03:13.487Z,35.70
2022-12-08T03:04:59.621Z,38.40
2022-12-08T03:06:38.093Z,33.55
2022-12-08T03:08:18.019Z,27.92
2022-12-08T03:09:56.633Z,29.15
2022-12-08T03:11:34.934Z,31.75
2022-12-08T03:13:14.944Z,31.98
2022-12-08T03:14:53.973Z,29.52
2022-12-08T03:16:30.797Z,29.58
2022-12-08T03:18:07.797Z,31.92
2022-12-08T03:19:45.131Z,31.88
2022-12-08T03:21:22.282Z,27.23
2022-12-08T03:22:59.202Z,27.42
2022-12-08T03:24:35.298Z,27.05
2022-12-08T03:26:15.925Z,24.67
2022-12-08T03:27:49.858Z,26.90
2022-12-08T03:29:22.240Z,31.02
2022-12-08T03:30:59.366Z,31.50
2022-12-08T03:32:38.204Z,25.80
2022-12-08T03:34:12.298Z,21.05
2022-12-08T03:35:47.526Z,23.23
2022-12-08T03:37:22.922Z,31.85
2022-12-08T03:38:56.573Z,67.35
2022-12-08T03:40:28.736Z,24.90
2022-12-08T03:42:02.134Z,27.52
2022-12-08T03:43:35.553Z,30.60
2022-12-08T03:45:09.568Z,41.50
2022-12-08T03:46:42.822Z,35.40
2022-12-08T03:48:16.283Z,33.60
2022-12-08T03:49:49.759Z,30.33
2022-12-08T03:51:23.408Z,24.67
2022-12-08T03:52:58.069Z,21.80
2022-12-08T03:54:31.526Z,21.80
2022-12-08T03:56:06.003Z,22.65
2022-12-08T03:57:39.496Z,22.15
2022-12-08T03:59:13.143Z,20.27
2022-12-08T04:00:45.365Z,22.10
2022-12-08T04:02:18.759Z,22.58
2022-12-08T04:03:51.752Z,27.65
2022-12-08T04:05:24.899Z,18.77
2022-12-08T04:06:58.168Z,18.98
2022-12-08T04:08:31.814Z,21.73
2022-12-08T04:10:06.321Z,27.83
2022-12-08T04:11:39.952Z,157.50
2022-12-08T04:13:13.551Z,34.50
2022-12-08T04:14:46.893Z,16.92
2022-12-08T04:16:24.067Z,21.23
2022-12-08T04:17:58.000Z,20.73
2022-12-08T04:19:31.576Z,14.85
2022-12-08T04:21:04.801Z,15.38
2022-12-08T04:22:38.318Z,23.00
2022-12-08T04:24:13.187Z,17.08
2022-12-08T04:25:45.566Z,15.52
2022-12-08T04:27:18.900Z,11.57
2022-12-08T04:28:52.464Z,14.90
2022-12-08T04:30:24.675Z,13.57
2022-12-08T04:31:57.943Z,16.70
2022-12-08T04:33:31.383Z,18.58
2022-12-08T04:35:04.862Z,21.92
2022-12-08T04:36:38.345Z,22.42
2022-12-08T04:38:11.596Z,31.80
2022-12-08T04:39:46.584Z,27.60
2022-12-08T04:41:20.109Z,17.08
2022-12-08T04:42:53.388Z,28.55
2022-12-08T04:44:26.669Z,17.38
2022-12-08T04:46:00.013Z,18.98
2022-12-08T04:47:33.628Z,24.23
2022-12-08T04:49:06.980Z,16.52
2022-12-08T04:50:42.685Z,32.95
2022-12-08T04:52:16.286Z,20.88
2022-12-08T04:53:49.780Z,29.77
2022-12-08T04:55:24.749Z,28.40
2022-12-08T04:56:57.947Z,17.80
2022-12-08T04:58:31.318Z,25.35
2022-12-08T05:00:06.409Z,34.55
2022-12-08T05:01:39.908Z,29.25
2022-12-08T05:03:14.265Z,27.98
2022-12-08T05:04:47.979Z,31.75
2022-12-08T05:06:21.398Z,28.85
2022-12-08T05:07:54.685Z,19.02
2022-12-08T05:09:28.266Z,11.85
2022-12-08T05:11:08.700Z,15.30
2022-12-08T05:12:42.260Z,19.45
2022-12-08T05:14:17.497Z,21.52
2022-12-08T05:15:51.097Z,29.60
2022-12-08T05:17:24.561Z,25.45
2022-12-08T05:18:58.336Z,24.17
2022-12-08T05:20:31.666Z,36.03
2022-12-08T05:22:05.415Z,21.90
2022-12-08T05:23:38.819Z,22.05
2022-12-08T05:25:13.494Z,23.08
2022-12-08T05:26:48.295Z,13.27
2022-12-08T05:28:42.281Z,13.48
2022-12-08T05:30:16.239Z,19.75
2022-12-08T05:31:49.750Z,16.75
2022-12-08T05:33:23.418Z,22.00
2022-12-08T05:34:56.625Z,20.45
2022-12-08T05:36:30.176Z,20.20
2022-12-08T05:38:03.364Z,19.67
2022-12-08T05:39:36.597Z,16.08
2022-12-08T05:41:11.678Z,15.35
2022-12-08T05:42:46.689Z,20.52
2022-12-08T05:44:19.849Z,18.50
2022-12-08T05:45:53.240Z,15.65
2022-12-08T05:47:26.497Z,15.98
2022-12-08T05:49:00.829Z,14.00
2022-12-08T05:50:34.252Z,21.60
2022-12-08T05:52:10.804Z,27.58
2022-12-08T05:53:44.249Z,28.95
2022-12-08T05:55:18.192Z,28.92
2022-12-08T05:56:51.724Z,19.67
2022-12-08T05:58:26.431Z,17.45
2022-12-08T06:00:00.123Z,15.82
2022-12-08T06:01:37.316Z,13.25
2022-12-08T06:03:12.674Z,14.20
2022-12-08T06:04:46.181Z,11.65
2022-12-08T06:06:19.475Z,15.15
2022-12-08T06:07:52.910Z,22.60
2022-12-08T06:09:26.207Z,20.40
2022-12-08T06:10:59.661Z,15.45
2022-12-08T06:12:33.453Z,16.52
2022-12-08T06:14:12.636Z,19.40
2022-12-08T06:15:45.788Z,19.27
2022-12-08T06:17:19.408Z,13.25
2022-12-08T06:18:52.940Z,15.52
2022-12-08T06:20:26.707Z,19.65
2022-12-08T06:22:00.550Z,18.77
2022-12-08T06:23:33.799Z,15.98
2022-12-08T06:25:10.108Z,20.65
2022-12-08T06:26:44.220Z,20.20
2022-12-08T06:28:17.425Z,19.00
2022-12-08T06:29:52.258Z,13.90
2022-12-08T06:31:27.672Z,13.57
2022-12-08T06:33:01.380Z,21.08
2022-12-08T06:34:34.868Z,26.33
2022-12-08T06:36:08.951Z,22.77
2022-12-08T06:37:42.323Z,28.83
2022-12-08T06:39:15.711Z,28.83
2022-12-08T06:40:55.745Z,20.60
2022-12-08T06:42:46.925Z,20.38
2022-12-08T06:44:20.307Z,22.73
2022-12-08T06:45:55.217Z,24.35
2022-12-08T06:47:28.763Z,24.92
2022-12-08T06:49:02.136Z,18.10
2022-12-08T06:50:36.078Z,24.05
2022-12-08T06:52:09.391Z,37.58
2022-12-08T06:53:43.307Z,25.45
2022-12-08T06:55:42.118Z,19.17
2022-12-08T06:57:10.239Z,22.60
2022-12-08T06:58:48.973Z,23.25
2022-12-08T07:00:25.876Z,23.45
2022-12-08T07:02:01.168Z,20.40
2022-12-08T07:03:34.777Z,19.38
2022-12-08T07:05:08.885Z,26.15
2022-12-08T07:06:42.175Z,28.67
2022-12-08T07:08:15.814Z,29.42
2022-12-08T07:09:49.610Z,26.33
2022-12-08T07:11:23.291Z,22.50
2022-12-08T07:12:56.725Z,23.75
2022-12-08T07:14:30.367Z,22.13
2022-12-08T07:16:07.027Z,17.52
2022-12-08T07:17:41.954Z,23.65
2022-12-08T07:19:15.371Z,17.38
2022-12-08T07:20:48.697Z,19.25
2022-12-08T07:22:22.225Z,23.25
2022-12-08T07:23:57.937Z,22.45
2022-12-08T07:25:31.742Z,24.17
2022-12-08T07:27:05.280Z,20.83
2022-12-08T07:28:40.278Z,19.05
2022-12-08T07:30:15.207Z,19.90
2022-12-08T07:31:48.601Z,21.42
2022-12-08T07:33:24.675Z,14.45
2022-12-08T07:34:58.403Z,17.13
2022-12-08T07:36:32.625Z,12.80
2022-12-08T07:38:06.011Z,10.55
2022-12-08T07:39:39.204Z,13.05
2022-12-08T07:41:16.313Z,13.77
2022-12-08T07:42:49.472Z,16.05
2022-12-08T07:44:22.826Z,18.05
2022-12-08T07:45:56.100Z,13.02
2022-12-08T07:47:29.920Z,15.95
2022-12-08T07:49:04.805Z,15.32
2022-12-08T07:50:38.746Z,19.30
2022-12-08T07:52:12.193Z,23.70
2022-12-08T07:53:53.509Z,22.77
2022-12-08T07:55:28.741Z,32.83
2022-12-08T07:57:04.982Z,20.23
2022-12-08T07:58:38.233Z,22.70
2022-12-08T08:00:13.039Z,20.23
2022-12-08T08:01:56.280Z,16.67
2022-12-08T08:03:40.759Z,14.70
2022-12-08T08:05:15.956Z,17.05
2022-12-08T08:06:49.317Z,13.77
2022-12-08T08:08:23.096Z,24.42
2022-12-08T08:09:56.339Z,15.60
2022-12-08T08:11:30.152Z,20.10
2022-12-08T08:13:03.630Z,19.58
2022-12-08T08:14:36.808Z,25.33
2022-12-08T08:16:13.451Z,23.95
2022-12-08T08:17:50.158Z,22.83
2022-12-08T08:19:23.364Z,19.65
2022-12-08T08:20:58.148Z,26.50
2022-12-08T08:22:31.322Z,26.30
2022-12-08T08:24:05.135Z,20.30
2022-12-08T08:25:38.310Z,19.33
2022-12-08T08:27:11.907Z,23.67
2022-12-08T08:28:46.195Z,25.88
2022-12-08T08:30:22.973Z,33.42
2022-12-08T08:31:56.719Z,17.42
2022-12-08T08:33:29.948Z,22.33
2022-12-08T08:35:03.414Z,14.63
2022-12-08T08:36:39.085Z,18.25
2022-12-08T08:38:12.289Z,18.08
2022-12-08T08:39:46.223Z,15.40
2022-12-08T08:41:19.370Z,18.48
2022-12-08T08:42:52.942Z,16.98
2022-12-08T08:44:26.188Z,20.40
2022-12-08T08:46:01.071Z,16.00
2022-12-08T08:47:34.425Z,15.45
2022-12-08T08:49:08.637Z,15.43
2022-12-08T08:50:41.913Z,13.77
2022-12-08T08:52:16.559Z,18.55
2022-12-08T08:53:49.757Z,15.68
2022-12-08T08:55:23.559Z,20.42
2022-12-08T08:56:58.106Z,29.90
2022-12-08T08:58:31.574Z,17.67
2022-12-08T09:00:06.140Z,35.15
2022-12-08T09:01:40.109Z,22.30
2022-12-08T09:03:13.947Z,17.17
2022-12-08T09:04:47.747Z,17.70
2022-12-08T09:06:21.237Z,18.05
2022-12-08T09:07:56.328Z,19.73
2022-12-08T09:09:31.246Z,16.08
2022-12-08T09:11:10.660Z,16.02
2022-12-08T09:12:44.092Z,28.10
2022-12-08T09:14:18.054Z,19.05
2022-12-08T09:15:51.665Z,32.55
2022-12-08T09:17:24.992Z,25.23
2022-12-08T09:18:58.330Z,21.90
2022-12-08T09:20:31.837Z,22.55
2022-12-08T09:22:06.001Z,14.73
2022-12-08T09:23:41.028Z,21.30
2022-12-08T09:25:14.246Z,20.73
2022-12-08T09:26:48.108Z,20.98
2022-12-08T09:28:21.324Z,23.23
2022-12-08T09:29:54.553Z,25.30
2022-12-08T09:31:28.092Z,24.08
2022-12-08T09:33:01.743Z,34.58
2022-12-08T09:34:35.252Z,24.70
2022-12-08T09:36:10.077Z,22.85
2022-12-08T09:37:43.236Z,25.42
2022-12-08T09:39:18.024Z,21.23
2022-12-08T09:40:53.866Z,23.55
2022-12-08T09:42:36.698Z,28.73
2022-12-08T09:44:39.469Z,29.25
2022-12-08T09:46:17.835Z,24.63
2022-12-08T09:48:00.984Z,29.60
2022-12-08T09:49:41.188Z,24.55
2022-12-08T09:51:16.265Z,24.13
2022-12-08T09:52:59.243Z,25.23
2022-12-08T09:54:36.263Z,31.20
2022-12-08T09:56:14.476Z,29.67
2022-12-08T09:57:56.479Z,29.98
2022-12-08T09:59:32.879Z,24.67
2022-12-08T10:01:06.309Z,29.35
2022-12-08T10:02:39.658Z,34.95
2022-12-08T10:04:22.226Z,30.63
2022-12-08T10:06:04.106Z,36.78
2022-12-08T10:07:44.288Z,40.88
2022-12-08T10:09:29.563Z,37.65
2022-12-08T10:11:15.180Z,46.45
2022-12-08T10:12:55.862Z,46.50
2022-12-08T10:14:34.995Z,46.92
2022-12-08T10:16:28.013Z,46.97
2022-12-08T10:18:10.516Z,49.08
2022-12-08T10:19:47.039Z,45.92
2022-12-08T10:21:23.008Z,52.10
2022-12-08T10:23:08.837Z,57.75
2022-12-08T10:24:49.467Z,52.33
2022-12-08T10:26:24.068Z,49.35
2022-12-08T10:27:59.793Z,50.25
2022-12-08T10:29:32.963Z,51.40
2022-12-08T10:31:07.041Z,44.22
2022-12-08T10:32:43.786Z,48.03
2022-12-08T10:34:20.085Z,48.45
2022-12-08T10:35:55.153Z,41.05
2022-12-08T10:37:28.853Z,44.10
2022-12-08T10:39:02.737Z,44.30
2022-12-08T10:40:43.804Z,48.22
2022-12-08T10:42:22.529Z,48.08
2022-12-08T10:44:01.551Z,47.03
2022-12-08T10:45:42.084Z,51.33
2022-12-08T10:47:15.665Z,43.53
2022-12-08T10:48:52.039Z,43.35
2022-12-08T10:50:31.927Z,45.95
2022-12-08T10:52:11.674Z,44.47
2022-12-08T10:53:47.603Z,43.33
2022-12-08T10:55:22.600Z,39.90
2022-12-08T10:56:57.542Z,43.28
2022-12-08T10:58:35.696Z,33.55
2022-12-08T11:00:16.874Z,42.08
2022-12-08T11:01:53.081Z,41.92
2022-12-08T11:03:30.759Z,44.95
2022-12-08T11:05:04.740Z,44.47
2022-12-08T11:06:39.959Z,57.03
2022-12-08T11:08:13.504Z,49.45
2022-12-08T11:09:51.149Z,44.22
2022-12-08T11:11:39.001Z,49.92
2022-12-08T11:13:21.045Z,51.58
2022-12-08T11:15:03.493Z,51.90
2022-12-08T11:16:37.127Z,46.63
2022-12-08T11:18:23.958Z,44.58
2022-12-08T11:20:00.158Z,43.10
2022-12-08T11:21:39.292Z,47.70
2022-12-08T11:23:23.775Z,43.03
2022-12-08T11:25:02.739Z,40.90
2022-12-08T11:26:38.179Z,53.05
2022-12-08T11:28:12.836Z,48.53
2022-12-08T11:29:46.168Z,43.60
2022-12-08T11:31:30.511Z,37.00
2022-12-08T11:33:13.968Z,37.38
2022-12-08T11:34:52.756Z,39.17
2022-12-08T11:36:28.659Z,38.15
2022-12-08T11:38:20.555Z,51.17
2022-12-08T11:40:00.361Z,39.92
2022-12-08T11:41:38.752Z,43.88
2022-12-08T11:43:19.543Z,38.63
2022-12-08T11:44:58.805Z,42.38
2022-12-08T11:46:38.179Z,38.72
2022-12-08T11:48:19.182Z,38.63
2022-12-08T11:49:56.900Z,42.55
2022-12-08T11:51:34.813Z,41.47
2022-12-08T11:53:16.825Z,47.42
2022-12-08T11:54:54.459Z,44.38
2022-12-08T11:56:34.921Z,37.47
2022-12-08T11:58:18.388Z,40.90
2022-12-08T11:59:52.984Z,42.35
2022-12-08T12:01:27.886Z,34.88
2022-12-08T12:03:26.819Z,43.45
2022-12-08T12:05:05.945Z,41.20
2022-12-08T12:07:23.061Z,38.60
2022-12-08T12:09:11.770Z,42.90
2022-12-08T12:11:02.571Z,47.58
2022-12-08T12:12:49.938Z,45.67
2022-12-08T12:14:41.813Z,39.17
2022-12-08T12:16:49.497Z,46.13
2022-12-08T12:18:28.360Z,33.90
2022-12-08T12:20:07.790Z,35.00
2022-12-08T12:21:45.299Z,34.50
2022-12-08T12:23:22.359Z,33.72
2022-12-08T12:24:55.588Z,37.38
2022-12-08T12:26:31.062Z,37.78
2022-12-08T12:28:10.099Z,37.72
2022-12-08T12:29:55.297Z,39.58
2022-12-08T12:31:32.156Z,33.70
2022-12-08T12:33:12.025Z,31.65
2022-12-08T12:34:52.575Z,36.60
2022-12-08T12:36:26.495Z,38.10
2022-12-08T12:38:26.248Z,36.55
2022-12-08T12:40:03.184Z,34.45
2022-12-08T12:41:44.393Z,37.50
2022-12-08T12:43:31.161Z,34.28
2022-12-08T12:45:30.520Z,42.05
2022-12-08T12:47:05.727Z,46.88
2022-12-08T12:48:39.130Z,49.15
2022-12-08T12:50:15.416Z,43.00
2022-12-08T12:51:55.437Z,34.42
2022-12-08T12:53:55.550Z,36.42
2022-12-08T12:55:55.238Z,35.40
2022-12-08T12:57:37.497Z,36.17
2022-12-08T12:59:32.299Z,38.20
2022-12-08T13:01:51.149Z,29.98
2022-12-08T13:03:25.917Z,33.38
2022-12-08T13:05:03.583Z,33.80
2022-12-08T13:06:42.794Z,33.08
2022-12-08T13:08:23.154Z,32.45
2022-12-08T13:10:01.230Z,32.10
2022-12-08T13:11:48.618Z,33.85
2022-12-08T13:13:22.558Z,36.88
2022-12-08T13:15:02.085Z,41.75
2022-12-08T13:16:39.804Z,38.80
2022-12-08T13:18:21.227Z,44.28
2022-12-08T13:19:58.369Z,41.58
2022-12-08T13:21:36.027Z,45.65
2022-12-08T13:23:30.906Z,43.20
2022-12-08T13:25:37.261Z,41.70
2022-12-08T13:27:32.826Z,46.22
2022-12-08T13:29:18.946Z,46.95
2022-12-08T13:30:53.408Z,55.95
2022-12-08T13:34:56.273Z,62.13
2022-12-08T13:36:34.821Z,56.88
2022-12-08T13:38:08.897Z,42.63
2022-12-08T13:39:51.525Z,40.15
2022-12-08T13:41:30.880Z,44.22
2022-12-08T13:43:14.231Z,42.72
2022-12-08T13:45:21.418Z,44.15
2022-12-08T13:47:09.759Z,47.22
2022-12-08T13:55:25.910Z,49.90
2022-12-08T13:58:37.986Z,67.05
2022-12-08T14:00:18.297Z,60.83
2022-12-08T14:01:53.344Z,63.30
2022-12-08T14:03:27.008Z,63.85
2022-12-08T14:06:57.856Z,65.22
2022-12-08T14:10:32.243Z,58.38
2022-12-08T14:12:09.768Z,64.05
2022-12-08T14:13:43.515Z,56.97
2022-12-08T14:15:17.593Z,67.20
2022-12-08T14:16:56.352Z,62.78
2022-12-08T14:18:32.401Z,61.33
2022-12-08T14:20:19.271Z,64.22
2022-12-08T14:21:59.788Z,55.25
2022-12-08T14:23:36.665Z,67.07
2022-12-08T14:25:16.009Z,52.78
2022-12-08T14:26:54.666Z,60.20
2022-12-08T14:28:29.815Z,57.55
2022-12-08T14:30:07.414Z,81.72
2022-12-08T14:31:41.786Z,138.13
2022-12-08T14:33:17.563Z,136.40
2022-12-08T14:35:00.190Z,157.35
2022-12-08T14:36:34.203Z,138.82
2022-12-08T14:38:13.839Z,87.72
2022-12-08T14:39:47.621Z,71.07
2022-12-08T14:41:29.499Z,57.92
2022-12-08T14:43:17.483Z,56.50
2022-12-08T14:44:58.165Z,57.92
2022-12-08T14:46:32.112Z,64.28
2022-12-08T14:48:19.981Z,66.35
2022-12-08T14:49:53.580Z,61.38
2022-12-08T14:51:32.372Z,69.30
2022-12-08T14:53:11.702Z,69.85
2022-12-08T14:54:45.578Z,65.25
2022-12-08T14:56:23.324Z,67.90
2022-12-08T14:57:56.565Z,67.38
2022-12-08T14:59:32.067Z,61.75
2022-12-08T15:01:10.471Z,64.68
2022-12-08T15:02:47.830Z,87.75
2022-12-08T15:04:25.638Z,74.60
2022-12-08T15:06:04.247Z,44.10
2022-12-08T15:07:48.799Z,36.83
2022-12-08T15:09:31.994Z,49.83
2022-12-08T15:11:20.581Z,72.50
2022-12-08T15:13:02.776Z,53.97
2022-12-08T15:14:39.763Z,52.30
2022-12-08T15:16:27.583Z,59.30
2022-12-08T15:18:08.062Z,47.10
2022-12-08T15:19:42.068Z,45.83
2022-12-08T15:21:15.301Z,48.35
2022-12-08T15:22:48.545Z,43.15
2022-12-08T15:24:26.179Z,40.97
2022-12-08T15:26:01.783Z,54.20
2022-12-08T15:27:43.762Z,81.38
2022-12-08T15:29:24.979Z,77.15
2022-12-08T15:31:00.339Z,73.43
2022-12-08T15:32:35.437Z,77.07
2022-12-08T15:34:08.589Z,64.32
2022-12-08T15:35:43.043Z,55.05
2022-12-08T15:37:25.313Z,46.78
2022-12-08T15:38:58.768Z,58.65
2022-12-08T15:40:34.780Z,47.45
2022-12-08T15:42:13.322Z,53.50
2022-12-08T15:43:46.536Z,60.92
2022-12-08T15:45:19.805Z,60.53
2022-12-08T15:46:54.674Z,69.30
2022-12-08T15:48:31.430Z,64.88
2022-12-08T15:50:05.714Z,53.25
2022-12-08T15:51:39.999Z,144.88
2022-12-08T15:53:13.382Z,54.60
2022-12-08T15:54:46.752Z,42.95
2022-12-08T15:56:27.443Z,41.25
2022-12-08T15:59:54.861Z,39.40
2022-12-08T16:01:28.512Z,43.97
2022-12-08T16:03:27.787Z,44.53
2022-12-08T16:08:56.084Z,50.13
2022-12-08T16:11:24.140Z,48.47
2022-12-08T16:15:47.323Z,59.88
2022-12-08T16:16:43.467Z,49.17
2022-12-08T16:18:19.173Z,66.55
2022-12-08T16:19:52.816Z,75.97
2022-12-08T16:23:41.779Z,66.05
2022-12-08T16:25:18.899Z,71.35
2022-12-08T16:28:55.126Z,52.05
2022-12-08T16:30:28.980Z,46.47
2022-12-08T16:32:02.391Z,56.80
2022-12-08T16:33:35.663Z,52.88
2022-12-08T16:35:12.432Z,58.33
2022-12-08T16:36:47.290Z,74.45
2022-12-08T16:38:20.592Z,92.10
2022-12-08T16:39:59.386Z,74.85
2022-12-08T16:41:50.502Z,63.53
2022-12-08T16:43:23.876Z,65.75
2022-12-08T16:44:57.090Z,63.90
2022-12-08T16:46:31.133Z,68.45
2022-12-08T16:48:05.335Z,74.13
2022-12-08T16:49:39.569Z,75.53
2022-12-08T16:51:19.749Z,86.47
2022-12-08T16:53:00.649Z,93.53
2022-12-08T16:54:34.380Z,100.80
2022-12-08T16:56:07.896Z,87.82
2022-12-08T16:57:42.231Z,79.65
2022-12-08T16:59:15.693Z,93.18
2022-12-08T17:00:49.302Z,82.10
2022-12-08T17:02:22.598Z,84.35
2022-12-08T17:04:22.962Z,82.45
2022-12-08T17:05:49.273Z,77.97
2022-12-08T17:07:22.858Z,76.65
2022-12-08T17:08:57.557Z,74.45
2022-12-08T17:10:34.469Z,64.13
2022-12-08T17:12:07.961Z,63.80
2022-12-08T17:13:43.102Z,60.65
2022-12-08T17:15:18.470Z,66.20
2022-12-08T17:16:56.547Z,66.85
2022-12-08T17:18:30.868Z,68.82
2022-12-08T17:20:07.120Z,83.60
2022-12-08T17:21:40.674Z,83.30
2022-12-08T17:23:14.892Z,98.63
2022-12-08T17:24:50.746Z,119.75
2022-12-08T17:26:25.189Z,117.78
2022-12-08T17:27:58.984Z,98.15
2022-12-08T17:29:33.018Z,83.50
2022-12-08T17:31:14.248Z,71.47
2022-12-08T17:32:51.533Z,73.28
2022-12-08T17:34:25.597Z,63.40
2022-12-08T17:36:02.594Z,97.75
2022-12-08T17:37:36.500Z,50.10
2022-12-08T17:39:13.464Z,46.83
2022-12-08T17:40:58.476Z,59.58
2022-12-08T17:42:42.489Z,84.18
2022-12-08T17:44:18.240Z,75.85
2022-12-08T17:45:51.463Z,74.15
2022-12-08T17:47:24.867Z,88.55
2022-12-08T17:48:58.205Z,58.50
2022-12-08T17:50:32.179Z,63.38
2022-12-08T17:52:08.339Z,52.88
2022-12-08T17:53:41.966Z,71.05
2022-12-08T17:55:15.665Z,73.90
2022-12-08T17:56:50.809Z,53.13
2022-12-08T17:58:25.151Z,75.22
2022-12-08T17:59:59.475Z,89.80
2022-12-08T18:01:35.205Z,88.25
2022-12-08T18:03:12.337Z,171.43
2022-12-08T18:04:46.176Z,93.55
2022-12-08T18:06:20.300Z,101.85
2022-12-08T18:07:53.653Z,114.03
2022-12-08T18:09:27.720Z,51.78
2022-12-08T18:11:01.355Z,39.20
2022-12-08T18:12:36.094Z,64.10
2022-12-08T18:14:11.088Z,54.20
2022-12-08T18:15:44.645Z,83.50
2022-12-08T18:17:17.972Z,61.95
2022-12-08T18:18:52.014Z,69.88
2022-12-08T18:20:25.606Z,46.78
2022-12-08T18:21:59.047Z,52.53
2022-12-08T18:23:32.261Z,40.63
2022-12-08T18:25:06.911Z,44.85
2022-12-08T18:26:41.388Z,47.03
2022-12-08T18:28:16.445Z,40.55
2022-12-08T18:29:49.614Z,40.75
2022-12-08T18:31:24.304Z,60.80
2022-12-08T18:32:57.868Z,50.88
2022-12-08T18:34:31.812Z,78.63
2022-12-08T18:36:09.574Z,67.72
2022-12-08T18:37:44.125Z,58.70
2022-12-08T18:39:24.491Z,52.25
2022-12-08T18:41:06.122Z,51.83
2022-12-08T18:42:40.040Z,48.28
2022-12-08T18:44:14.691Z,38.72
2022-12-08T18:45:47.949Z,58.80
2022-12-08T18:47:21.901Z,62.13
2022-12-08T18:48:55.482Z,50.17
2022-12-08T18:50:29.293Z,69.43
2022-12-08T18:52:02.493Z,47.38
2022-12-08T18:53:37.291Z,66.10
2022-12-08T18:55:11.208Z,56.10
2022-12-08T18:56:45.343Z,68.53
2022-12-08T18:58:18.549Z,54.47
2022-12-08T18:59:53.787Z,59.17
2022-12-08T19:01:30.408Z,45.42
2022-12-08T19:03:04.558Z,56.83
2022-12-08T19:04:39.072Z,42.28
2022-12-08T19:06:14.330Z,43.35
2022-12-08T19:07:47.813Z,29.63
2022-12-08T19:09:21.552Z,44.67
2022-12-08T19:10:55.545Z,41.03
2022-12-08T19:12:29.177Z,36.92
2022-12-08T19:14:02.879Z,40.53
2022-12-08T19:15:38.128Z,52.08
2022-12-08T19:17:11.528Z,49.25
2022-12-08T19:18:45.687Z,51.78
2022-12-08T19:20:19.057Z,45.20
2022-12-08T19:21:52.225Z,51.25
2022-12-08T19:23:25.757Z,51.72
2022-12-08T19:24:59.588Z,58.92
2022-12-08T19:26:32.889Z,44.97
2022-12-08T19:28:06.500Z,53.63
2022-12-08T19:29:39.862Z,36.45
2022-12-08T19:31:15.348Z,45.08
2022-12-08T19:32:48.974Z,50.88
2022-12-08T19:34:23.393Z,39.45
2022-12-08T19:35:57.091Z,52.25
2022-12-08T19:37:30.637Z,50.50
2022-12-08T19:39:23.279Z,58.83
2022-12-08T19:41:14.591Z,55.25
2022-12-08T19:43:05.470Z,65.70
2022-12-08T19:44:54.103Z,63.60
2022-12-08T19:46:29.133Z,50.08
2022-12-08T19:48:02.599Z,51.50
2022-12-08T19:49:36.316Z,55.88
2022-12-08T19:51:10.308Z,60.63
2022-12-08T19:52:44.062Z,50.70
2022-12-08T19:54:17.668Z,46.17
2022-12-08T19:55:51.791Z,58.80
2022-12-08T19:57:25.178Z,78.72
2022-12-08T19:58:58.849Z,76.28
2022-12-08T20:00:33.943Z,53.85
2022-12-08T20:02:09.514Z,50.83
2022-12-08T20:03:42.997Z,59.72
2022-12-08T20:05:19.103Z,49.00
2022-12-08T20:06:54.461Z,46.40
2022-12-08T20:08:28.796Z,41.00
2022-12-08T20:10:04.987Z,33.67
2022-12-08T20:11:38.629Z,38.17
2022-12-08T20:13:30.806Z,48.63
2022-12-08T20:15:04.882Z,45.83
2022-12-08T20:16:38.098Z,38.35
2022-12-08T20:18:14.887Z,52.95
2022-12-08T20:19:49.716Z,48.55
2022-12-08T20:21:23.906Z,79.53
2022-12-08T20:22:57.089Z,64.50
2022-12-08T20:24:31.120Z,53.83
2022-12-08T20:26:07.035Z,43.35
2022-12-08T20:27:40.252Z,43.75
2022-12-08T20:29:16.939Z,37.55
2022-12-08T20:30:53.016Z,35.60
2022-12-08T20:32:27.343Z,47.70
2022-12-08T20:34:02.609Z,45.10
2022-12-08T20:35:35.872Z,51.13
2022-12-08T20:37:09.993Z,65.35
2022-12-08T20:38:43.942Z,110.35
2022-12-08T20:40:17.433Z,118.72
2022-12-08T20:41:54.792Z,76.07
2022-12-08T20:43:28.182Z,71.97
2022-12-08T20:45:01.461Z,63.38
2022-12-08T20:46:35.981Z,83.82
2022-12-08T20:48:09.582Z,51.45
2022-12-08T20:49:49.176Z,68.30
2022-12-08T20:51:26.952Z,61.42
2022-12-08T20:53:03.360Z,46.38
2022-12-08T20:54:39.239Z,46.00
2022-12-08T20:56:17.026Z,42.35
2022-12-08T20:57:50.374Z,34.78
2022-12-08T20:59:24.140Z,36.33
2022-12-08T21:00:57.366Z,34.05
2022-12-08T21:02:30.987Z,28.08
2022-12-08T21:04:05.031Z,31.80
2022-12-08T21:05:40.752Z,26.35
2022-12-08T21:07:15.238Z,32.95
2022-12-08T21:08:48.657Z,33.15
2022-12-08T21:10:22.505Z,28.73
2022-12-08T21:11:56.400Z,29.15
2022-12-08T21:13:30.553Z,29.67
2022-12-08T21:15:07.723Z,32.63